Time;durP1;ratioP1;P1;durP2;ratioP2;P2;SDS_P1;SDS_P2;PMS_P1;PMS_P2;Temp;Humidity;BMP_temperature;BMP_pressure;BME280_temperature;BME280_humidity;BME280_pressure;Samples;Min_cycle;Max_cycle;Signal;HPM_P1;HPM_P2
2022/09/29 00:00:10;;;;;;;40.15;3.08;;;;;;;;;;4975614;28;20038;-67
2022/09/29 00:02:36;;;;;;;31.80;3.38;;;;;;;;;;4976172;28;20086;-67
2022/09/29 00:05:03;;;;;;;30.10;2.25;;;;;;;;;;4988484;28;20057;-67
2022/09/29 00:07:31;;;;;;;60.70;3.50;;;;;;;;;;4981565;28;20127;-68
2022/09/29 00:09:57;;;;;;;109.07;5.60;;;;;;;;;;4979969;28;20046;-68
2022/09/29 00:12:24;;;;;;;204.25;7.30;;;;;;;;;;4980308;28;21464;-67
2022/09/29 00:14:50;;;;;;;38.05;2.97;;;;;;;;;;4961737;28;20042;-67
2022/09/29 00:17:16;;;;;;;184.98;7.22;;;;;;;;;;4980749;28;20500;-67
2022/09/29 00:19:42;;;;;;;148.48;6.70;;;;;;;;;;4980488;28;20739;-67
2022/09/29 00:22:08;;;;;;;103.93;5.00;;;;;;;;;;4976431;28;20049;-67
2022/09/29 00:24:35;;;;;;;168.18;6.95;;;;;;;;;;4981946;28;20047;-67
2022/09/29 00:27:01;;;;;;;75.45;4.78;;;;;;;;;;4978778;28;20049;-67
2022/09/29 00:29:27;;;;;;;36.00;3.65;;;;;;;;;;4980565;28;20042;-67
2022/09/29 00:31:53;;;;;;;79.53;4.40;;;;;;;;;;4980183;28;20050;-67
2022/09/29 00:34:20;;;;;;;106.95;5.30;;;;;;;;;;4976252;28;20074;-67
2022/09/29 00:36:46;;;;;;;123.93;5.60;;;;;;;;;;4980375;28;20057;-67
2022/09/29 00:39:12;;;;;;;97.90;5.55;;;;;;;;;;4978762;28;20074;-67
2022/09/29 00:41:39;;;;;;;131.32;5.95;;;;;;;;;;4982285;28;20493;-67
2022/09/29 00:44:07;;;;;;;139.45;5.55;;;;;;;;;;4982202;28;20576;-67
2022/09/29 00:46:36;;;;;;;130.35;5.45;;;;;;;;;;4981953;28;20416;-67
2022/09/29 00:49:05;;;;;;;106.82;5.70;;;;;;;;;;4983306;28;20054;-67
2022/09/29 00:51:33;;;;;;;69.57;4.47;;;;;;;;;;4982714;28;20038;-67
2022/09/29 00:53:59;;;;;;;71.38;5.55;;;;;;;;;;4982450;28;20148;-67
2022/09/29 00:56:25;;;;;;;61.50;3.45;;;;;;;;;;4981579;28;20362;-67
2022/09/29 00:58:57;;;;;;;48.47;3.47;;;;;;;;;;4982666;28;20081;-67
2022/09/29 01:01:25;;;;;;;35.45;3.80;;;;;;;;;;4983342;28;20136;-67
2022/09/29 01:03:55;;;;;;;76.55;7.03;;;;;;;;;;4978471;28;20393;-67
2022/09/29 01:06:26;;;;;;;173.90;8.77;;;;;;;;;;4980538;28;20117;-66
2022/09/29 01:08:59;;;;;;;40.78;4.72;;;;;;;;;;4978361;28;20420;-67
2022/09/29 01:11:25;;;;;;;27.27;4.30;;;;;;;;;;4978466;28;20173;-68
2022/09/29 01:13:52;;;;;;;6.95;4.10;;;;;;;;;;4960825;28;20434;-67
2022/09/29 01:16:18;;;;;;;7.00;4.35;;;;;;;;;;4980046;28;20050;-67
2022/09/29 01:18:46;;;;;;;19.08;4.50;;;;;;;;;;4980171;28;20241;-67
2022/09/29 01:21:18;;;;;;;28.02;4.35;;;;;;;;;;4977211;28;20608;-67
2022/09/29 01:24:04;;;;;;;45.65;4.72;;;;;;;;;;4977233;28;20507;-68
2022/09/29 01:26:40;;;;;;;18.92;4.57;;;;;;;;;;4980736;28;20117;-67
2022/09/29 01:29:06;;;;;;;121.22;7.50;;;;;;;;;;4979428;28;20417;-67
2022/09/29 01:31:40;;;;;;;150.20;8.43;;;;;;;;;;4978925;28;20394;-68
2022/09/29 01:34:09;;;;;;;138.80;7.15;;;;;;;;;;4978696;28;20062;-67
2022/09/29 01:36:42;;;;;;;46.55;4.45;;;;;;;;;;4975889;28;20054;-67
2022/09/29 01:39:19;;;;;;;70.47;5.85;;;;;;;;;;4976050;28;20042;-67
2022/09/29 01:41:50;;;;;;;87.50;5.65;;;;;;;;;;4979403;28;20042;-67
2022/09/29 01:44:16;;;;;;;83.13;4.32;;;;;;;;;;4979039;28;20057;-67
2022/09/29 01:46:44;;;;;;;73.85;3.72;;;;;;;;;;4976796;28;20039;-67
2022/09/29 01:49:11;;;;;;;36.88;2.70;;;;;;;;;;4980848;28;20039;-68
2022/09/29 01:51:42;;;;;;;67.32;3.53;;;;;;;;;;4975012;28;20093;-67
2022/09/29 01:54:11;;;;;;;56.35;3.25;;;;;;;;;;4977937;28;20042;-67
2022/09/29 01:56:42;;;;;;;91.95;4.35;;;;;;;;;;4976789;28;20042;-67
2022/09/29 01:59:17;;;;;;;82.28;5.00;;;;;;;;;;4976362;28;20596;-67
2022/09/29 02:01:47;;;;;;;86.53;4.22;;;;;;;;;;4992293;28;20054;-67
2022/09/29 02:04:17;;;;;;;63.05;3.50;;;;;;;;;;4977785;28;20204;-67
2022/09/29 02:06:47;;;;;;;100.88;6.35;;;;;;;;;;4978026;28;20054;-67
2022/09/29 02:09:19;;;;;;;181.40;6.15;;;;;;;;;;4977747;28;20060;-67
2022/09/29 02:11:46;;;;;;;173.73;6.80;;;;;;;;;;4977805;28;20042;-67
2022/09/29 02:14:16;;;;;;;93.38;5.55;;;;;;;;;;4981677;28;20473;-67
2022/09/29 02:16:47;;;;;;;127.35;6.55;;;;;;;;;;4981097;28;20065;-67
2022/09/29 02:19:16;;;;;;;154.90;7.43;;;;;;;;;;4978995;28;20229;-67
2022/09/29 02:21:43;;;;;;;169.48;7.57;;;;;;;;;;4975998;28;20458;-67
2022/09/29 02:24:10;;;;;;;237.75;11.35;;;;;;;;;;4979275;28;20093;-68
2022/09/29 02:26:36;;;;;;;233.48;9.57;;;;;;;;;;4977462;28;20160;-67
2022/09/29 02:29:03;;;;;;;66.90;6.13;;;;;;;;;;4980655;28;20516;-67
2022/09/29 02:31:30;;;;;;;69.97;5.10;;;;;;;;;;4977628;28;20108;-67
2022/09/29 02:33:56;;;;;;;112.35;5.60;;;;;;;;;;4977159;28;20042;-67
2022/09/29 02:36:30;;;;;;;187.93;10.32;;;;;;;;;;4979256;28;20053;-67
2022/09/29 02:39:02;;;;;;;156.35;6.90;;;;;;;;;;4978649;28;20077;-67
2022/09/29 02:41:36;;;;;;;97.70;4.75;;;;;;;;;;4979713;28;20053;-67
2022/09/29 02:44:09;;;;;;;138.70;5.55;;;;;;;;;;4981675;28;20050;-67
2022/09/29 02:46:54;;;;;;;145.52;6.28;;;;;;;;;;4980767;28;20062;-67
2022/09/29 02:49:26;;;;;;;185.95;7.10;;;;;;;;;;4981734;28;20038;-68
2022/09/29 02:51:57;;;;;;;106.00;5.53;;;;;;;;;;4979500;28;20599;-67
2022/09/29 02:54:27;;;;;;;137.98;6.40;;;;;;;;;;4982298;28;20086;-67
2022/09/29 02:57:00;;;;;;;121.18;5.20;;;;;;;;;;4979307;28;20129;-68
2022/09/29 02:59:27;;;;;;;;;;;;;;;;;;4980568;28;20050;-67
2022/09/29 03:01:54;;;;;;;134.52;6.18;;;;;;;;;;4977806;28;20374;-67
2022/09/29 03:04:22;;;;;;;123.55;6.43;;;;;;;;;;4976558;28;20042;-68
2022/09/29 03:06:48;;;;;;;136.27;6.75;;;;;;;;;;4974079;28;20050;-67
2022/09/29 03:09:14;;;;;;;132.02;6.68;;;;;;;;;;4939934;28;21456;-67
2022/09/29 03:11:41;;;;;;;109.25;6.70;;;;;;;;;;4942470;28;20047;-67
2022/09/29 03:14:07;;;;;;;114.13;6.32;;;;;;;;;;4937418;28;20059;-68
2022/09/29 03:16:34;;;;;;;91.10;5.20;;;;;;;;;;4959706;28;20058;-67
2022/09/29 03:19:01;;;;;;;73.93;5.30;;;;;;;;;;4960007;28;20483;-68
2022/09/29 03:21:27;;;;;;;57.40;4.68;;;;;;;;;;4955211;28;20035;-68
2022/09/29 03:23:53;;;;;;;61.70;4.70;;;;;;;;;;4958154;28;20038;-68
2022/09/29 03:26:19;;;;;;;28.85;4.20;;;;;;;;;;4959823;28;20127;-68
2022/09/29 03:28:45;;;;;;;64.25;5.15;;;;;;;;;;4958849;28;20103;-68
2022/09/29 03:31:12;;;;;;;43.70;3.92;;;;;;;;;;4940785;28;20131;-67
2022/09/29 03:33:39;;;;;;;44.40;4.20;;;;;;;;;;4957220;28;20046;-68
2022/09/29 03:36:07;;;;;;;66.35;6.03;;;;;;;;;;4958844;28;20042;-67
2022/09/29 03:38:34;;;;;;;62.72;5.03;;;;;;;;;;4958003;28;20230;-68
2022/09/29 03:41:00;;;;;;;35.80;4.50;;;;;;;;;;4954743;28;20114;-67
2022/09/29 03:43:26;;;;;;;61.08;5.30;;;;;;;;;;4955368;28;20058;-68
2022/09/29 03:45:54;;;;;;;64.65;6.32;;;;;;;;;;4959507;28;20035;-68
2022/09/29 03:48:21;;;;;;;66.65;6.53;;;;;;;;;;4958502;28;20638;-68
2022/09/29 03:50:47;;;;;;;72.78;7.13;;;;;;;;;;4937823;28;20130;-68
2022/09/29 03:53:13;;;;;;;70.57;6.93;;;;;;;;;;4958008;28;20038;-68
2022/09/29 03:55:40;;;;;;;78.03;7.45;;;;;;;;;;4959441;28;20050;-67
2022/09/29 03:58:06;;;;;;;118.10;8.88;;;;;;;;;;4957709;28;20043;-68
2022/09/29 04:00:32;;;;;;;132.50;8.93;;;;;;;;;;4957468;28;20050;-68
2022/09/29 04:02:59;;;;;;;118.47;8.93;;;;;;;;;;4955495;28;20043;-67
2022/09/29 04:05:26;;;;;;;121.75;9.07;;;;;;;;;;4956185;28;20057;-68
2022/09/29 04:07:52;;;;;;;90.43;7.93;;;;;;;;;;4970019;28;20055;-67
2022/09/29 04:10:18;;;;;;;144.95;9.00;;;;;;;;;;4976290;28;20113;-68
2022/09/29 04:12:44;;;;;;;122.97;9.18;;;;;;;;;;4974749;28;20469;-67
2022/09/29 04:15:11;;;;;;;136.48;8.20;;;;;;;;;;4978876;28;20038;-68
2022/09/29 04:17:37;;;;;;;74.57;6.60;;;;;;;;;;4978699;28;20492;-68
2022/09/29 04:20:03;;;;;;;78.18;6.97;;;;;;;;;;4974619;28;20065;-68
2022/09/29 04:22:29;;;;;;;75.35;7.70;;;;;;;;;;4976549;28;20058;-68
2022/09/29 04:24:55;;;;;;;61.25;5.82;;;;;;;;;;4977213;28;20236;-67
2022/09/29 04:27:21;;;;;;;59.05;6.10;;;;;;;;;;4973499;28;20108;-68
2022/09/29 04:29:48;;;;;;;72.70;6.35;;;;;;;;;;4975560;28;20054;-68
2022/09/29 04:32:14;;;;;;;74.13;6.22;;;;;;;;;;4976666;28;20080;-68
2022/09/29 04:34:40;;;;;;;68.45;6.38;;;;;;;;;;4979857;28;20042;-68
2022/09/29 04:37:10;;;;;;;152.80;9.20;;;;;;;;;;4974113;28;20109;-68
2022/09/29 04:39:36;;;;;;;214.52;11.70;;;;;;;;;;4976259;28;20046;-67
2022/09/29 04:42:02;;;;;;;148.60;8.43;;;;;;;;;;4979818;28;20042;-67
2022/09/29 04:44:29;;;;;;;218.52;10.63;;;;;;;;;;4977824;28;20056;-67
2022/09/29 04:46:55;;;;;;;236.80;11.80;;;;;;;;;;4979907;28;20053;-67
2022/09/29 04:49:21;;;;;;;276.40;12.18;;;;;;;;;;4980213;28;20049;-68
2022/09/29 04:51:47;;;;;;;198.77;9.93;;;;;;;;;;4982458;28;20046;-68
2022/09/29 04:54:13;;;;;;;217.13;12.00;;;;;;;;;;4982898;28;20220;-68
2022/09/29 04:56:39;;;;;;;283.77;13.43;;;;;;;;;;4981357;28;20050;-68
2022/09/29 04:59:06;;;;;;;177.52;11.88;;;;;;;;;;4980253;28;20073;-67
2022/09/29 05:01:32;;;;;;;209.25;12.38;;;;;;;;;;4983318;28;20034;-68
2022/09/29 05:03:58;;;;;;;114.57;9.13;;;;;;;;;;4981850;28;20101;-68
2022/09/29 05:06:24;;;;;;;112.40;9.45;;;;;;;;;;4983253;28;20107;-66
2022/09/29 05:08:51;;;;;;;147.32;10.50;;;;;;;;;;4981877;28;20168;-68
2022/09/29 05:11:17;;;;;;;111.85;9.15;;;;;;;;;;4984654;28;20093;-68
2022/09/29 05:13:43;;;;;;;156.27;10.02;;;;;;;;;;4982123;28;20053;-67
2022/09/29 05:16:09;;;;;;;171.02;12.43;;;;;;;;;;4982745;28;20050;-66
2022/09/29 05:18:35;;;;;;;192.30;11.32;;;;;;;;;;4984416;28;20137;-65
2022/09/29 05:21:03;;;;;;;199.80;12.18;;;;;;;;;;4982316;28;20074;-66
2022/09/29 05:23:29;;;;;;;217.60;12.98;;;;;;;;;;4980433;28;20054;-65
2022/09/29 05:25:55;;;;;;;182.02;10.98;;;;;;;;;;4981196;28;20125;-65
2022/09/29 05:28:21;;;;;;;162.63;11.60;;;;;;;;;;4984036;28;20049;-65
2022/09/29 05:30:47;;;;;;;104.72;9.45;;;;;;;;;;4985771;28;20084;-65
2022/09/29 05:33:13;;;;;;;249.38;14.40;;;;;;;;;;4986695;28;20536;-66
2022/09/29 05:35:39;;;;;;;188.20;12.63;;;;;;;;;;4988068;28;20054;-65
2022/09/29 05:38:06;;;;;;;260.67;14.60;;;;;;;;;;4988372;28;20048;-66
2022/09/29 05:40:32;;;;;;;268.35;13.38;;;;;;;;;;4985219;28;20435;-66
2022/09/29 05:42:59;;;;;;;203.73;13.25;;;;;;;;;;4988684;28;20042;-66
2022/09/29 05:45:26;;;;;;;216.50;13.00;;;;;;;;;;4989745;28;20125;-65
2022/09/29 05:47:53;;;;;;;231.48;16.38;;;;;;;;;;4990351;28;20038;-65
2022/09/29 05:50:20;;;;;;;181.60;12.95;;;;;;;;;;4988988;28;20133;-66
2022/09/29 05:52:48;;;;;;;147.93;12.02;;;;;;;;;;4988611;28;20054;-66
2022/09/29 05:55:14;;;;;;;177.98;11.90;;;;;;;;;;4988608;28;20046;-66
2022/09/29 05:57:41;;;;;;;185.35;12.00;;;;;;;;;;4987949;28;20381;-66
2022/09/29 06:00:07;;;;;;;273.10;15.98;;;;;;;;;;4985931;28;20046;-65
2022/09/29 06:02:34;;;;;;;202.68;13.75;;;;;;;;;;4986737;28;20486;-65
2022/09/29 06:05:00;;;;;;;207.05;13.82;;;;;;;;;;4987637;28;20065;-66
2022/09/29 06:07:26;;;;;;;202.38;12.75;;;;;;;;;;4986138;28;20736;-66
2022/09/29 06:09:52;;;;;;;161.65;13.18;;;;;;;;;;4985406;28;20054;-66
2022/09/29 06:12:18;;;;;;;125.00;10.48;;;;;;;;;;4987876;28;20052;-66
2022/09/29 06:14:44;;;;;;;142.30;13.05;;;;;;;;;;4987060;28;20045;-66
2022/09/29 06:17:11;;;;;;;185.20;13.02;;;;;;;;;;4986345;28;20038;-66
2022/09/29 06:19:37;;;;;;;123.00;11.10;;;;;;;;;;4987622;28;20449;-65
2022/09/29 06:22:03;;;;;;;122.82;12.43;;;;;;;;;;4986415;28;20481;-66
2022/09/29 06:24:29;;;;;;;121.78;10.18;;;;;;;;;;4985392;28;20046;-66
2022/09/29 06:26:55;;;;;;;75.70;9.05;;;;;;;;;;4986242;28;20129;-65
2022/09/29 06:29:21;;;;;;;28.02;8.50;;;;;;;;;;4987768;28;20046;-65
2022/09/29 06:31:47;;;;;;;36.08;9.25;;;;;;;;;;4984510;28;20141;-65
2022/09/29 06:34:14;;;;;;;85.40;11.45;;;;;;;;;;4984839;28;20141;-65
2022/09/29 06:39:26;;;;;;;75.80;10.05;;;;;;;;;;4986378;28;20078;-65
2022/09/29 06:41:55;;;;;;;55.85;10.70;;;;;;;;;;4985185;28;20203;-65
2022/09/29 06:44:23;;;;;;;82.60;11.35;;;;;;;;;;4985674;28;20494;-66
2022/09/29 06:46:50;;;;;;;66.22;12.57;;;;;;;;;;4985562;28;20062;-65
2022/09/29 06:49:16;;;;;;;59.42;10.80;;;;;;;;;;4986890;28;20048;-65
2022/09/29 06:51:43;;;;;;;40.30;11.35;;;;;;;;;;4986603;28;20100;-65
2022/09/29 06:54:10;;;;;;;23.02;9.23;;;;;;;;;;4986164;28;20405;-65
2022/09/29 06:56:36;;;;;;;21.75;9.02;;;;;;;;;;4986634;28;20062;-65
2022/09/29 06:59:02;;;;;;;15.43;8.90;;;;;;;;;;4986784;28;20130;-66
2022/09/29 07:01:28;;;;;;;17.30;8.82;;;;;;;;;;4984793;28;20569;-65
2022/09/29 07:03:56;;;;;;;12.02;8.18;;;;;;;;;;4984950;28;20046;-65
2022/09/29 07:06:22;;;;;;;15.63;9.25;;;;;;;;;;4986335;28;20105;-65
2022/09/29 07:08:53;;;;;;;17.45;9.48;;;;;;;;;;4987973;28;20509;-65
2022/09/29 07:11:19;;;;;;;34.60;9.77;;;;;;;;;;4985472;28;20050;-66
2022/09/29 07:13:45;;;;;;;54.88;11.65;;;;;;;;;;4984982;28;20140;-65
2022/09/29 07:16:12;;;;;;;59.90;14.10;;;;;;;;;;4985602;28;20092;-65
2022/09/29 07:18:39;;;;;;;119.40;19.75;;;;;;;;;;4986038;28;20305;-66
2022/09/29 07:21:08;;;;;;;207.82;23.35;;;;;;;;;;4986189;28;20078;-66
2022/09/29 07:23:35;;;;;;;157.93;22.30;;;;;;;;;;4984386;28;20042;-66
2022/09/29 07:26:01;;;;;;;144.65;25.35;;;;;;;;;;4984666;28;20057;-65
2022/09/29 07:28:28;;;;;;;136.23;25.88;;;;;;;;;;4986561;28;20052;-66
2022/09/29 07:31:02;;;;;;;116.72;26.98;;;;;;;;;;4985368;28;20081;-65
2022/09/29 07:33:29;;;;;;;61.15;24.85;;;;;;;;;;4985221;28;20054;-66
2022/09/29 07:35:58;;;;;;;105.07;25.77;;;;;;;;;;4984136;28;20045;-66
2022/09/29 07:38:24;;;;;;;101.47;26.02;;;;;;;;;;4986785;28;20042;-66
2022/09/29 07:40:50;;;;;;;145.63;30.48;;;;;;;;;;4987105;28;20128;-66
2022/09/29 07:43:17;;;;;;;185.20;33.40;;;;;;;;;;4984064;28;20042;-66
2022/09/29 07:45:50;;;;;;;194.88;35.50;;;;;;;;;;4986408;28;20053;-66
2022/09/29 07:48:16;;;;;;;200.30;37.85;;;;;;;;;;4984643;28;20442;-66
2022/09/29 07:50:43;;;;;;;154.43;37.70;;;;;;;;;;4986976;28;20096;-66
2022/09/29 07:53:10;;;;;;;148.32;36.08;;;;;;;;;;4985770;28;20035;-66
2022/09/29 07:55:36;;;;;;;129.52;34.90;;;;;;;;;;4984192;28;20116;-65
2022/09/29 07:58:02;;;;;;;150.77;37.67;;;;;;;;;;4986459;28;20476;-65
2022/09/29 08:00:30;;;;;;;153.18;37.50;;;;;;;;;;4987483;28;20101;-65
2022/09/29 08:02:59;;;;;;;146.82;38.75;;;;;;;;;;4985803;28;20104;-66
2022/09/29 08:05:26;;;;;;;206.07;38.10;;;;;;;;;;4983703;28;20038;-65
2022/09/29 08:07:52;;;;;;;216.07;35.90;;;;;;;;;;4985769;28;20063;-65
2022/09/29 08:10:19;;;;;;;185.80;36.03;;;;;;;;;;4985357;28;20129;-66
2022/09/29 08:12:45;;;;;;;192.45;38.92;;;;;;;;;;4981954;28;20071;-66
2022/09/29 08:15:11;;;;;;;164.27;38.08;;;;;;;;;;4985707;28;20108;-66
2022/09/29 08:17:37;;;;;;;192.20;38.00;;;;;;;;;;4983884;28;20145;-66
2022/09/29 08:20:03;;;;;;;221.52;37.88;;;;;;;;;;4986520;28;20049;-66
2022/09/29 08:22:30;;;;;;;148.35;41.35;;;;;;;;;;4985475;28;20054;-66
2022/09/29 08:24:56;;;;;;;186.85;40.92;;;;;;;;;;4986027;28;20104;-66
2022/09/29 08:27:23;;;;;;;214.15;46.15;;;;;;;;;;4987752;28;20050;-66
2022/09/29 08:29:49;;;;;;;138.02;43.80;;;;;;;;;;4988695;28;20052;-65
2022/09/29 08:32:16;;;;;;;114.22;43.30;;;;;;;;;;4973594;28;20218;-65
2022/09/29 08:34:42;;;;;;;110.25;42.70;;;;;;;;;;4992572;28;20573;-65
2022/09/29 08:37:08;;;;;;;125.45;46.35;;;;;;;;;;4990484;28;20132;-65
2022/09/29 08:39:34;;;;;;;105.45;45.20;;;;;;;;;;4991866;28;20039;-66
2022/09/29 08:42:15;;;;;;;83.07;43.92;;;;;;;;;;4990497;28;20482;-66
2022/09/29 08:44:45;;;;;;;84.93;46.35;;;;;;;;;;4988821;28;20122;-68
2022/09/29 08:47:20;;;;;;;69.82;41.83;;;;;;;;;;4991359;28;20124;-68
2022/09/29 08:49:55;;;;;;;87.75;47.85;;;;;;;;;;4992319;28;20081;-68
2022/09/29 08:52:30;;;;;;;81.72;47.13;;;;;;;;;;4991473;28;20043;-68
2022/09/29 08:55:01;;;;;;;76.85;44.25;;;;;;;;;;5007318;28;20470;-68
2022/09/29 08:57:29;;;;;;;68.57;40.70;;;;;;;;;;4990662;28;20038;-68
2022/09/29 08:59:58;;;;;;;50.90;33.25;;;;;;;;;;4991283;28;20057;-68
2022/09/29 09:02:40;;;;;;;48.15;32.33;;;;;;;;;;4990948;28;20049;-68
2022/09/29 09:05:17;;;;;;;44.17;29.98;;;;;;;;;;4990580;28;20042;-68
2022/09/29 09:07:52;;;;;;;35.30;25.95;;;;;;;;;;4989581;28;20050;-68
2022/09/29 09:10:29;;;;;;;34.50;24.33;;;;;;;;;;4988660;28;20280;-68
2022/09/29 09:13:04;;;;;;;33.88;24.45;;;;;;;;;;4985209;28;20037;-68
2022/09/29 09:15:36;;;;;;;28.75;20.48;;;;;;;;;;4990509;28;20125;-68
2022/09/29 09:18:13;;;;;;;25.83;20.67;;;;;;;;;;4990246;28;20046;-68
2022/09/29 09:20:55;;;;;;;28.30;20.35;;;;;;;;;;4990157;28;20109;-69
2022/09/29 09:23:24;;;;;;;30.92;21.17;;;;;;;;;;4989613;28;21378;-68
2022/09/29 09:25:54;;;;;;;28.58;19.70;;;;;;;;;;4990348;28;20062;-68
2022/09/29 09:28:20;;;;;;;24.42;15.68;;;;;;;;;;4989417;28;20109;-68
2022/09/29 09:30:50;;;;;;;19.48;14.20;;;;;;;;;;4990373;28;20400;-69
2022/09/29 09:33:21;;;;;;;24.00;15.85;;;;;;;;;;4990972;28;20398;-68
2022/09/29 09:35:55;;;;;;;20.25;13.82;;;;;;;;;;4990461;28;20042;-68
2022/09/29 09:38:24;;;;;;;15.60;11.43;;;;;;;;;;4992296;28;20101;-68
2022/09/29 09:40:53;;;;;;;17.73;12.27;;;;;;;;;;4990499;28;20119;-68
2022/09/29 09:43:22;;;;;;;16.73;12.50;;;;;;;;;;4990274;28;20381;-68
2022/09/29 09:45:49;;;;;;;14.30;11.18;;;;;;;;;;4990898;28;20141;-69
2022/09/29 09:48:19;;;;;;;15.63;12.48;;;;;;;;;;4990927;28;20141;-68
2022/09/29 09:50:49;;;;;;;14.48;9.18;;;;;;;;;;4983779;28;20046;-66
2022/09/29 09:53:22;;;;;;;13.70;8.10;;;;;;;;;;4987353;28;20418;-68
2022/09/29 09:55:48;;;;;;;;;;;;;;;;;;4984263;28;20050;-68
2022/09/29 09:58:31;;;;;;;8.43;6.05;;;;;;;;;;4985523;28;19922;-68
2022/09/29 10:00:59;;;;;;;9.10;5.70;;;;;;;;;;4983639;28;20052;-68
2022/09/29 10:03:27;;;;;;;7.80;4.68;;;;;;;;;;4985566;28;20058;-68
2022/09/29 10:05:53;;;;;;;5.97;3.80;;;;;;;;;;4984811;28;20066;-68
2022/09/29 10:08:24;;;;;;;7.47;4.78;;;;;;;;;;4987607;28;20217;-68
2022/09/29 10:10:50;;;;;;;6.07;4.32;;;;;;;;;;4987328;28;21277;-68
2022/09/29 10:13:17;;;;;;;7.55;4.97;;;;;;;;;;4985916;28;20129;-68
2022/09/29 10:15:47;;;;;;;10.55;5.15;;;;;;;;;;4987291;28;20039;-68
2022/09/29 10:18:17;;;;;;;6.90;4.05;;;;;;;;;;4982749;28;20057;-68
2022/09/29 10:20:43;;;;;;;8.02;4.35;;;;;;;;;;4987867;28;20463;-68
2022/09/29 10:23:29;;;;;;;7.90;4.88;;;;;;;;;;4984315;28;20133;-68
2022/09/29 10:26:05;;;;;;;7.05;3.85;;;;;;;;;;4987813;28;20125;-68
2022/09/29 10:28:41;;;;;;;4.40;2.42;;;;;;;;;;4984820;28;20353;-68
2022/09/29 10:31:16;;;;;;;5.68;2.92;;;;;;;;;;4986665;28;20050;-68
2022/09/29 10:33:46;;;;;;;8.20;4.00;;;;;;;;;;4984832;28;20050;-68
2022/09/29 10:36:13;;;;;;;8.43;4.28;;;;;;;;;;4984320;28;20121;-68
2022/09/29 10:38:39;;;;;;;6.50;3.20;;;;;;;;;;4985629;28;20050;-68
2022/09/29 10:41:06;;;;;;;9.10;3.40;;;;;;;;;;4986830;28;20046;-68
2022/09/29 10:43:36;;;;;;;5.13;3.28;;;;;;;;;;4987151;28;20047;-68
2022/09/29 10:46:03;;;;;;;5.50;3.25;;;;;;;;;;4985117;28;20042;-67
2022/09/29 10:48:29;;;;;;;6.18;3.60;;;;;;;;;;4986309;28;20061;-67
2022/09/29 10:50:58;;;;;;;6.88;3.58;;;;;;;;;;4987230;28;20393;-68
2022/09/29 10:53:30;;;;;;;5.22;2.38;;;;;;;;;;4987355;28;20050;-67
2022/09/29 10:55:59;;;;;;;4.25;2.80;;;;;;;;;;4988371;28;20049;-66
2022/09/29 10:58:30;;;;;;;5.93;2.65;;;;;;;;;;4990010;28;20097;-66
2022/09/29 11:01:10;;;;;;;4.78;2.40;;;;;;;;;;4990666;28;20046;-66
2022/09/29 11:03:47;;;;;;;5.13;2.10;;;;;;;;;;4988433;28;20042;-66
2022/09/29 11:06:14;;;;;;;3.80;1.73;;;;;;;;;;4984028;28;20128;-66
2022/09/29 11:08:56;;;;;;;2.97;1.35;;;;;;;;;;4985617;28;20062;-66
2022/09/29 11:11:25;;;;;;;3.97;1.48;;;;;;;;;;4987000;28;20082;-76
2022/09/29 11:13:51;;;;;;;3.70;1.70;;;;;;;;;;4982671;28;20097;-66
2022/09/29 11:16:19;;;;;;;5.18;1.50;;;;;;;;;;4986200;28;20138;-66
2022/09/29 11:18:48;;;;;;;5.03;2.00;;;;;;;;;;4985665;28;20057;-66
2022/09/29 11:21:26;;;;;;;6.43;1.77;;;;;;;;;;4986742;28;20762;-66
2022/09/29 11:24:03;;;;;;;3.95;1.80;;;;;;;;;;4987244;28;20038;-66
2022/09/29 11:26:41;;;;;;;3.47;1.42;;;;;;;;;;4983015;28;20054;-66
2022/09/29 11:29:21;;;;;;;3.40;1.38;;;;;;;;;;4987263;28;20122;-66
2022/09/29 11:31:56;;;;;;;3.85;1.35;;;;;;;;;;4984278;28;20117;-67
2022/09/29 11:34:37;;;;;;;7.15;1.50;;;;;;;;;;4980304;28;20042;-66
2022/09/29 11:37:11;;;;;;;2.67;1.27;;;;;;;;;;4986400;28;20149;-68
2022/09/29 11:39:47;;;;;;;2.97;1.23;;;;;;;;;;4987818;28;20038;-68
2022/09/29 11:42:23;;;;;;;2.38;1.02;;;;;;;;;;4988282;28;20039;-68
2022/09/29 11:44:57;;;;;;;3.63;0.90;;;;;;;;;;4989134;28;20046;-68
2022/09/29 11:47:42;;;;;;;4.55;1.10;;;;;;;;;;4985892;28;20053;-66
2022/09/29 11:50:18;;;;;;;3.63;1.10;;;;;;;;;;4984423;28;20116;-65
2022/09/29 11:53:00;;;;;;;2.25;0.88;;;;;;;;;;4986377;28;20125;-66
2022/09/29 11:55:31;;;;;;;3.00;1.08;;;;;;;;;;4971926;28;20049;-66
2022/09/29 11:58:22;;;;;;;2.30;0.80;;;;;;;;;;4985201;28;20486;-66
2022/09/29 12:01:06;;;;;;;2.30;0.82;;;;;;;;;;4989174;28;20124;-66
2022/09/29 12:03:32;;;;;;;2.65;0.85;;;;;;;;;;4991273;28;20045;-66
2022/09/29 12:06:15;;;;;;;2.22;1.00;;;;;;;;;;4991956;28;20081;-66
2022/09/29 12:08:44;;;;;;;2.28;1.30;;;;;;;;;;4990357;28;20386;-66
2022/09/29 12:11:20;;;;;;;3.92;1.05;;;;;;;;;;4988243;28;20046;-66
2022/09/29 12:13:50;;;;;;;2.83;1.08;;;;;;;;;;4987171;28;20077;-66
2022/09/29 12:16:19;;;;;;;3.65;1.00;;;;;;;;;;4987599;28;20121;-66
2022/09/29 12:18:48;;;;;;;2.38;1.00;;;;;;;;;;4989371;28;20064;-67
2022/09/29 12:21:16;;;;;;;2.92;1.00;;;;;;;;;;4989239;28;20406;-66
2022/09/29 12:23:44;;;;;;;3.60;0.80;;;;;;;;;;4990981;28;20042;-66
2022/09/29 12:26:15;;;;;;;3.40;0.98;;;;;;;;;;4989334;28;20054;-66
2022/09/29 12:28:42;;;;;;;3.00;0.98;;;;;;;;;;4987934;28;20061;-66
2022/09/29 12:31:11;;;;;;;2.88;1.02;;;;;;;;;;4987050;28;20125;-66
2022/09/29 12:33:40;;;;;;;4.10;0.90;;;;;;;;;;4990097;28;20097;-66
2022/09/29 12:36:42;;;;;;;3.08;1.30;;;;;;;;;;4980822;28;20062;-66
2022/09/29 12:38:56;;;;;;;3.67;1.23;;;;;;;;;;4984446;28;20058;-83
2022/09/29 12:41:26;;;;;;;2.13;0.75;;;;;;;;;;4988342;28;20038;-66
2022/09/29 12:43:58;;;;;;;1.20;0.70;;;;;;;;;;4989351;28;20135;-66
2022/09/29 12:46:27;;;;;;;2.30;0.80;;;;;;;;;;4990511;28;20074;-66
2022/09/29 12:49:12;;;;;;;2.55;0.90;;;;;;;;;;4988674;28;20402;-66
2022/09/29 12:51:40;;;;;;;2.40;0.93;;;;;;;;;;4988126;28;20123;-66
2022/09/29 12:54:22;;;;;;;2.30;0.80;;;;;;;;;;4988112;28;20125;-66
2022/09/29 12:56:48;;;;;;;3.67;0.73;;;;;;;;;;4986731;28;20413;-66
2022/09/29 12:59:29;;;;;;;3.80;0.90;;;;;;;;;;4988579;28;20482;-66
2022/09/29 13:01:57;;;;;;;3.13;0.80;;;;;;;;;;4989568;28;20042;-66
2022/09/29 13:04:29;;;;;;;2.50;0.73;;;;;;;;;;4989643;28;20039;-66
2022/09/29 13:06:55;;;;;;;3.50;0.52;;;;;;;;;;4984034;28;20499;-66
2022/09/29 13:09:28;;;;;;;7.15;0.77;;;;;;;;;;4967562;28;20047;-66
2022/09/29 13:12:03;;;;;;;1.20;0.52;;;;;;;;;;4949657;28;20041;-66
2022/09/29 13:14:38;;;;;;;3.83;0.60;;;;;;;;;;4965338;28;20042;-66
2022/09/29 13:17:13;;;;;;;3.70;0.65;;;;;;;;;;4948021;28;20402;-66
2022/09/29 13:19:46;;;;;;;2.90;0.77;;;;;;;;;;4965239;28;20039;-66
2022/09/29 13:22:22;;;;;;;2.65;1.10;;;;;;;;;;4967424;28;20127;-66
2022/09/29 13:24:53;;;;;;;1.00;0.50;;;;;;;;;;4965200;28;20055;-66
2022/09/29 13:27:30;;;;;;;2.30;0.82;;;;;;;;;;4948500;28;20053;-67
2022/09/29 13:29:59;;;;;;;1.40;0.77;;;;;;;;;;4949156;28;20397;-67
2022/09/29 13:32:26;;;;;;;1.92;0.82;;;;;;;;;;4966983;28;20473;-67
2022/09/29 13:34:54;;;;;;;11.88;1.15;;;;;;;;;;4947540;28;20104;-67
2022/09/29 13:37:21;;;;;;;2.53;0.55;;;;;;;;;;4950963;28;20052;-67
2022/09/29 13:39:56;;;;;;;0.38;0.28;;;;;;;;;;4967532;28;20411;-66
2022/09/29 13:42:27;;;;;;;3.08;0.50;;;;;;;;;;4970016;28;20525;-66
2022/09/29 13:45:14;;;;;;;1.67;0.50;;;;;;;;;;4953263;28;20062;-66
2022/09/29 13:47:44;;;;;;;2.13;0.50;;;;;;;;;;4950905;28;20058;-66
2022/09/29 13:50:31;;;;;;;3.53;0.47;;;;;;;;;;4947858;28;20077;-66
2022/09/29 13:53:16;;;;;;;0.85;0.30;;;;;;;;;;4947467;28;20050;-65
2022/09/29 13:55:56;;;;;;;1.23;0.50;;;;;;;;;;4963168;28;20049;-66
2022/09/29 13:58:23;;;;;;;1.38;0.43;;;;;;;;;;4946784;28;20167;-66
2022/09/29 14:00:49;;;;;;;3.60;0.40;;;;;;;;;;4965631;28;20041;-66
2022/09/29 14:03:28;;;;;;;2.22;0.40;;;;;;;;;;4966278;28;20087;-66
2022/09/29 14:05:56;;;;;;;2.47;0.70;;;;;;;;;;4966309;28;20108;-66
2022/09/29 14:08:25;;;;;;;1.67;0.40;;;;;;;;;;4981514;28;20442;-66
2022/09/29 14:10:54;;;;;;;2.13;0.63;;;;;;;;;;4984934;28;20402;-66
2022/09/29 14:13:24;;;;;;;1.27;0.40;;;;;;;;;;4984872;28;20073;-66
2022/09/29 14:15:53;;;;;;;1.10;0.30;;;;;;;;;;4985164;28;20043;-66
2022/09/29 14:18:27;;;;;;;3.03;0.50;;;;;;;;;;4985880;28;20132;-66
2022/09/29 14:20:59;;;;;;;2.00;0.40;;;;;;;;;;4983665;28;20121;-66
2022/09/29 14:23:45;;;;;;;2.10;0.40;;;;;;;;;;4982236;28;20046;-66
2022/09/29 14:26:30;;;;;;;2.72;0.40;;;;;;;;;;4983910;28;20054;-66
2022/09/29 14:28:56;;;;;;;2.33;0.35;;;;;;;;;;4983222;28;20132;-66
2022/09/29 14:31:23;;;;;;;2.50;0.30;;;;;;;;;;4982471;28;20035;-66
2022/09/29 14:33:52;;;;;;;1.08;0.50;;;;;;;;;;4984433;28;20046;-66
2022/09/29 14:36:20;;;;;;;1.65;0.52;;;;;;;;;;4983385;28;20038;-66
2022/09/29 14:38:48;;;;;;;2.80;0.40;;;;;;;;;;4984195;28;20455;-66
2022/09/29 14:41:19;;;;;;;1.65;0.50;;;;;;;;;;4985493;28;20046;-66